This is the latest recevied weather packets stored in our database for station/object KJ7IVE-13. If no packets are shown the sender has not sent any weather packets the latest 10 day(s).
| Time | Temp. | Humidity | Pressure | Rain* | Wind** | Luminosity | Snow |
|---|---|---|---|---|---|---|---|
| 1777666961 | 17.78° C | 10% | 1021 hPa | 0 mm | - | 652 W/m² | - |
| 1777666052 | 17.78° C | 10% | 1021.4 hPa | 0 mm | - | 609 W/m² | - |
| 1777665749 | 17.78° C | 10% | 1021.1 hPa | 0 mm | - | 629 W/m² | - |
| 1777665446 | 17.78° C | 10% | 1021 hPa | 0 mm | - | 636 W/m² | - |
| 1777664839 | 18.33° C | 10% | 1021.5 hPa | 0 mm | - | 629 W/m² | - |
| 1777664231 | 17.22° C | 10% | 1021.4 hPa | 0 mm | - | 677 W/m² | - |
| 1777663930 | 17.78° C | 10% | 1021.5 hPa | 0 mm | - | 672 W/m² | - |
| 1777663627 | 17.78° C | 10% | 1021.4 hPa | 0 mm | - | 685 W/m² | - |
| 1777663324 | 17.78° C | 10% | 1021.4 hPa | 0 mm | - | 689 W/m² | - |
| 1777663021 | 17.22° C | 10% | 1021.5 hPa | 0 mm | - | 697 W/m² | - |
| 1777662718 | 16.67° C | 10% | 1021.7 hPa | 0 mm | - | 703 W/m² | - |
| 1777662110 | 17.22° C | 10% | 1021.7 hPa | 0 mm | - | 708 W/m² | - |
| 1777661806 | 16.67° C | 10% | 1021.8 hPa | 0 mm | - | 714 W/m² | - |
| 1777661502 | 17.22° C | 10% | 1021.7 hPa | 0 mm | - | 719 W/m² | - |
| 1777660590 | 16.67° C | 10% | 1021.8 hPa | 0 mm | - | 701 W/m² | - |
| 1777660286 | 17.22° C | 10% | 1021.8 hPa | 0 mm | - | 725 W/m² | - |
| 1777659983 | 16.67° C | 10% | 1022.2 hPa | 0 mm | - | 732 W/m² | - |
| 1777659680 | 16.67° C | 10% | 1021.8 hPa | 0 mm | - | 761 W/m² | - |
| 1777659377 | 17.22° C | 10% | 1022.4 hPa | 0 mm | - | 725 W/m² | - |
| 1777659074 | 16.67° C | 10% | 1022 hPa | 0 mm | - | 744 W/m² | - |
| 1777658772 | 16.67° C | 10% | 1022.3 hPa | 0 mm | - | 734 W/m² | - |
| 1777656953 | 16.67° C | 10% | 1022.3 hPa | 0 mm | - | 832 W/m² | - |
| 1777656649 | 16.11° C | 10% | 1022 hPa | 0 mm | - | 815 W/m² | - |
| 1777656041 | 15.56° C | 10% | 1022.4 hPa | 0 mm | - | 773 W/m² | - |
| 1777655737 | 16.11° C | 10% | 1022.5 hPa | 0 mm | - | 748 W/m² | - |
* Rain latest hour (hover to see other rain measurements)
** Current wind speed in m/s (hover to see current wind gust speed)